createdAt,value
2014-07-05T00:00:19.724Z,21.75
2014-07-05T00:01:23.726Z,21.65
2014-07-05T00:02:28.417Z,21.81
2014-07-05T00:03:33.106Z,21.52
2014-07-05T00:04:37.796Z,21.74
2014-07-05T00:05:42.782Z,21.76
2014-07-05T00:06:47.472Z,21.84
2014-07-05T00:07:52.459Z,21.69
2014-07-05T00:08:57.444Z,21.48
2014-07-05T00:10:02.135Z,21.7
2014-07-05T00:11:06.823Z,21.64
2014-07-05T00:12:11.513Z,21.51
2014-07-05T00:13:16.500Z,21.54
2014-07-05T00:14:21.189Z,21.62
2014-07-05T00:15:25.879Z,21.7
2014-07-05T00:16:30.568Z,21.86
2014-07-05T00:17:35.258Z,21.8
2014-07-05T00:18:39.931Z,21.52
2014-07-05T00:19:44.622Z,21.52
2014-07-05T00:20:49.311Z,21.62
2014-07-05T00:21:54.001Z,21.64
2014-07-05T00:22:58.690Z,21.76
2014-07-05T00:24:03.381Z,21.62
2014-07-05T00:25:08.366Z,21.5
2014-07-05T00:26:13.071Z,21.64
2014-07-05T00:27:18.058Z,21.5
2014-07-05T00:28:22.748Z,21.8
2014-07-05T00:29:27.733Z,21.55
2014-07-05T00:30:32.720Z,21.42
2014-07-05T00:31:37.395Z,21.46
2014-07-05T00:32:42.083Z,21.59
2014-07-05T00:33:46.774Z,21.7
2014-07-05T00:34:51.448Z,21.6
2014-07-05T00:35:56.434Z,21.53
2014-07-05T00:37:01.123Z,21.58
2014-07-05T00:38:05.813Z,21.62
2014-07-05T00:39:10.784Z,21.71
2014-07-05T00:40:15.473Z,21.86
2014-07-05T00:41:20.163Z,21.75
2014-07-05T00:42:24.852Z,21.54
2014-07-05T00:43:29.543Z,21.34
2014-07-05T00:44:34.217Z,21.45
2014-07-05T00:45:38.906Z,21.55
2014-07-05T00:46:43.892Z,21.54
2014-07-05T00:47:48.582Z,21.56
2014-07-05T00:48:53.271Z,21.48
2014-07-05T00:49:57.961Z,21.38
2014-07-05T00:51:02.932Z,21.28
2014-07-05T00:52:07.637Z,21.52
2014-07-05T00:53:12.623Z,21.58
2014-07-05T00:54:17.298Z,21.48
2014-07-05T00:55:22.283Z,21.57
2014-07-05T00:56:27.271Z,21.56
2014-07-05T00:57:31.945Z,21.45
2014-07-05T00:58:36.633Z,21.37
2014-07-05T00:59:41.324Z,21.58
2014-07-05T01:00:46.012Z,21.56
2014-07-05T01:01:50.703Z,21.69
2014-07-05T01:02:55.377Z,21.67
2014-07-05T01:04:00.066Z,21.84
2014-07-05T01:05:04.756Z,21.79
2014-07-05T01:06:09.445Z,21.72
2014-07-05T01:07:14.119Z,21.92
2014-07-05T01:08:18.808Z,21.72
2014-07-05T01:09:23.499Z,21.6
2014-07-05T01:10:28.188Z,21.67
2014-07-05T01:11:32.861Z,21.52
2014-07-05T01:12:37.552Z,21.41
2014-07-05T01:13:42.241Z,21.35
2014-07-05T01:14:46.914Z,21.56
2014-07-05T01:15:51.605Z,21.46
2014-07-05T01:16:56.591Z,21.37
2014-07-05T01:18:01.265Z,21.64
2014-07-05T01:19:05.954Z,21.53
2014-07-05T01:20:10.941Z,21.64
2014-07-05T01:21:15.927Z,21.58
2014-07-05T01:22:20.617Z,21.84
2014-07-05T01:23:25.291Z,21.62
2014-07-05T01:24:29.981Z,21.5
2014-07-05T01:25:34.670Z,21.6
2014-07-05T01:26:39.360Z,21.76
2014-07-05T01:27:44.050Z,21.76
2014-07-05T01:28:48.722Z,21.49
2014-07-05T01:29:53.710Z,21.58
2014-07-05T01:30:58.398Z,21.45
2014-07-05T01:32:03.370Z,21.47
2014-07-05T01:33:08.060Z,21.65
2014-07-05T01:34:13.046Z,21.71
2014-07-05T01:35:17.735Z,21.64
2014-07-05T01:36:22.409Z,21.68
2014-07-05T01:37:27.396Z,21.77
2014-07-05T01:38:32.085Z,21.67
2014-07-05T01:39:37.073Z,21.66
2014-07-05T01:40:41.745Z,21.7
2014-07-05T01:41:46.436Z,21.86
2014-07-05T01:42:51.124Z,21.64
2014-07-05T01:43:55.814Z,21.72
2014-07-05T01:45:00.489Z,21.8
2014-07-05T01:46:05.177Z,21.68
2014-07-05T01:47:09.868Z,21.3
2014-07-05T01:48:14.542Z,21.39
2014-07-05T01:49:19.528Z,21.48
2014-07-05T01:50:24.218Z,21.37
2014-07-05T01:51:28.908Z,21.25
2014-07-05T01:52:33.597Z,21.6
2014-07-05T01:53:38.270Z,21.53
2014-07-05T01:54:42.961Z,21.53
2014-07-05T01:55:47.946Z,21.51
2014-07-05T01:56:52.636Z,21.45
2014-07-05T01:57:57.607Z,21.42
2014-07-05T01:59:02.297Z,21.23
2014-07-05T02:00:06.987Z,21.36
2014-07-05T02:01:11.676Z,21.16
2014-07-05T02:02:16.662Z,21.18
2014-07-05T02:03:21.336Z,21.28
2014-07-05T02:04:26.026Z,21.54
2014-07-05T02:05:30.715Z,21.31
2014-07-05T02:06:35.405Z,21.18
2014-07-05T02:07:40.079Z,21.35
2014-07-05T02:08:44.768Z,21.47
2014-07-05T02:09:49.458Z,21.24
2014-07-05T02:10:54.444Z,21.18
2014-07-05T02:11:59.416Z,21.33
2014-07-05T02:13:04.104Z,21.32
2014-07-05T02:14:08.795Z,21.27
2014-07-05T02:15:13.484Z,21.42
2014-07-05T02:16:18.157Z,21.28
2014-07-05T02:17:22.848Z,21.19
2014-07-05T02:18:27.536Z,21.15
2014-07-05T02:19:32.524Z,21.09
2014-07-05T02:20:37.197Z,21.18
2014-07-05T02:21:41.887Z,21.18
2014-07-05T02:22:46.873Z,21.39
2014-07-05T02:23:51.563Z,21.62
2014-07-05T02:24:56.252Z,21.46
2014-07-05T02:26:00.942Z,21.51
2014-07-05T02:27:05.617Z,21.3
2014-07-05T02:28:10.305Z,21.38
2014-07-05T02:29:14.996Z,21.31
2014-07-05T02:30:19.670Z,21.55
2014-07-05T02:31:24.359Z,21.52
2014-07-05T02:32:29.345Z,21.51
2014-07-05T02:33:34.332Z,21.52
2014-07-05T02:34:39.318Z,21.5
2014-07-05T02:35:44.055Z,21.28
2014-07-05T02:36:49.025Z,21.38
2014-07-05T02:37:53.715Z,21.56
2014-07-05T02:38:58.404Z,21.48
2014-07-05T02:40:03.391Z,21.4
2014-07-05T02:41:08.080Z,21.52
2014-07-05T02:42:13.067Z,21.48
2014-07-05T02:43:17.756Z,21.64
2014-07-05T02:44:22.431Z,21.66
2014-07-05T02:45:27.120Z,21.77
2014-07-05T02:46:31.810Z,21.55
2014-07-05T02:47:36.499Z,21.44
2014-07-05T02:48:41.173Z,21.22
2014-07-05T02:49:45.863Z,21.32
2014-07-05T02:50:50.552Z,21.46
2014-07-05T02:51:55.242Z,21.44
2014-07-05T02:52:59.931Z,21.26
2014-07-05T02:54:04.621Z,21.05
2014-07-05T02:55:09.295Z,21.26
2014-07-05T02:56:13.984Z,21.38
2014-07-05T02:57:18.971Z,21.15
2014-07-05T02:58:23.644Z,20.91
2014-07-05T02:59:28.646Z,20.87
2014-07-05T03:00:33.320Z,21.16
2014-07-05T03:01:38.011Z,20.78
2014-07-05T03:02:42.700Z,20.96
2014-07-05T03:03:47.687Z,20.8
2014-07-05T03:04:52.361Z,20.61
2014-07-05T03:05:57.347Z,20.92
2014-07-05T03:07:02.333Z,21.08
2014-07-05T03:08:07.023Z,21.06
2014-07-05T03:09:11.994Z,21.1
2014-07-05T03:10:16.684Z,21.33
2014-07-05T03:11:21.373Z,21.15
2014-07-05T03:12:26.063Z,21.08
2014-07-05T03:13:31.048Z,21.11
2014-07-05T03:14:35.739Z,20.85
2014-07-05T03:15:40.428Z,20.83
2014-07-05T03:16:45.118Z,20.88
2014-07-05T03:17:49.807Z,20.89
2014-07-05T03:18:54.497Z,20.77
2014-07-05T03:19:59.483Z,21.09
2014-07-05T03:21:04.471Z,21.16
2014-07-05T03:22:09.144Z,20.87
2014-07-05T03:23:14.131Z,20.76
2014-07-05T03:24:18.819Z,20.93
2014-07-05T03:25:23.821Z,20.68
2014-07-05T03:26:28.511Z,20.8
2014-07-05T03:27:33.200Z,20.88
2014-07-05T03:28:37.891Z,20.95
2014-07-05T03:29:42.876Z,20.72
2014-07-05T03:30:47.582Z,20.64
2014-07-05T03:31:52.568Z,20.7
2014-07-05T03:32:57.258Z,20.7
2014-07-05T03:34:01.932Z,20.71
2014-07-05T03:35:06.622Z,21.01
2014-07-05T03:36:11.311Z,21.02
2014-07-05T03:37:16.002Z,20.96
2014-07-05T03:38:20.675Z,20.85
2014-07-05T03:39:25.365Z,20.74
2014-07-05T03:40:30.054Z,20.9
2014-07-05T03:41:35.041Z,20.75
2014-07-05T03:42:40.026Z,21.15
2014-07-05T03:43:44.716Z,21.06
2014-07-05T03:44:49.391Z,21.08
2014-07-05T03:45:54.079Z,20.99
2014-07-05T03:46:58.770Z,21.15
2014-07-05T03:48:03.756Z,21.12
2014-07-05T03:49:08.446Z,20.89
2014-07-05T03:50:13.135Z,21
2014-07-05T03:51:17.871Z,21.06
2014-07-05T03:52:22.561Z,21.21
2014-07-05T03:53:27.250Z,21.12
2014-07-05T03:54:32.237Z,21.16
2014-07-05T03:55:36.911Z,21.24
2014-07-05T03:56:41.898Z,21.26
2014-07-05T03:57:46.883Z,21.16
2014-07-05T03:58:51.574Z,21.08
2014-07-05T03:59:56.263Z,21.27
2014-07-05T04:01:00.953Z,21.03
2014-07-05T04:02:05.642Z,21.2
2014-07-05T04:03:10.316Z,21.24
2014-07-05T04:04:15.006Z,21.32
2014-07-05T04:05:19.680Z,21.24
2014-07-05T04:06:24.369Z,21.16
2014-07-05T04:07:29.059Z,21.3
2014-07-05T04:08:33.748Z,21.19
2014-07-05T04:09:38.423Z,21.24
2014-07-05T04:10:43.112Z,21.26
2014-07-05T04:11:48.099Z,21.16
2014-07-05T04:12:52.773Z,21.16
2014-07-05T04:13:57.461Z,21.3
2014-07-05T04:15:02.152Z,21.19
2014-07-05T04:16:06.826Z,21.32
2014-07-05T04:17:11.514Z,21.38
2014-07-05T04:18:16.205Z,21.22
2014-07-05T04:19:20.879Z,21.2
2014-07-05T04:20:25.865Z,21.18
2014-07-05T04:21:30.851Z,21.06
2014-07-05T04:22:35.541Z,21.28
2014-07-05T04:23:40.230Z,21.47
2014-07-05T04:24:45.202Z,21.04
2014-07-05T04:25:49.891Z,21.01
2014-07-05T04:26:54.878Z,21.3
2014-07-05T04:27:59.567Z,21
2014-07-05T04:29:04.240Z,20.81
2014-07-05T04:30:09.228Z,21.13
2014-07-05T04:31:13.916Z,21.2
2014-07-05T04:32:18.591Z,21.44
2014-07-05T04:33:23.281Z,21.49
2014-07-05T04:34:28.267Z,21.01
2014-07-05T04:35:32.956Z,21.02
2014-07-05T04:36:37.630Z,20.78
2014-07-05T04:37:42.320Z,20.83
2014-07-05T04:38:47.009Z,21.1
2014-07-05T04:39:51.700Z,21.06
2014-07-05T04:40:56.685Z,21.03
2014-07-05T04:42:01.360Z,21.4
2014-07-05T04:43:06.050Z,21.47
2014-07-05T04:44:10.739Z,21.34
2014-07-05T04:45:15.429Z,21.26
2014-07-05T04:46:20.113Z,21.02
2014-07-05T04:47:24.843Z,21.2
2014-07-05T04:48:29.572Z,21.08
2014-07-05T04:49:34.285Z,21.06
2014-07-05T04:50:39.016Z,21.12
2014-07-05T04:51:44.025Z,21.02
2014-07-05T04:52:48.744Z,21.11
2014-07-05T04:53:53.449Z,21.17
2014-07-05T04:54:58.152Z,21.28
2014-07-05T04:56:03.155Z,21.36
2014-07-05T04:57:07.833Z,21.22
2014-07-05T04:58:12.544Z,21.19
2014-07-05T04:59:17.223Z,21.1
2014-07-05T05:00:21.918Z,21.2
2014-07-05T05:01:26.612Z,21.24
2014-07-05T05:02:31.366Z,21.46
2014-07-05T05:03:36.337Z,21.21
2014-07-05T05:04:41.029Z,21.31
2014-07-05T05:05:45.720Z,21.16
2014-07-05T05:06:50.708Z,21.37
2014-07-05T05:07:55.397Z,21.2
2014-07-05T05:09:00.386Z,21.47
2014-07-05T05:10:05.059Z,21.4
2014-07-05T05:11:10.048Z,21.5
2014-07-05T05:12:15.033Z,21.42
2014-07-05T05:13:19.724Z,21.6
2014-07-05T05:14:24.413Z,21.45
2014-07-05T05:15:29.087Z,21.37
2014-07-05T05:16:34.073Z,21.55
2014-07-05T05:17:38.779Z,21.65
2014-07-05T05:18:43.749Z,21.61
2014-07-05T05:19:48.439Z,21.75
2014-07-05T05:20:53.128Z,22.09
2014-07-05T05:21:57.818Z,22.22
2014-07-05T05:23:02.804Z,22.13
2014-07-05T05:24:07.479Z,22.21
2014-07-05T05:25:12.168Z,22.44
2014-07-05T05:26:17.155Z,22.53
2014-07-05T05:27:21.829Z,22.77
2014-07-05T05:28:26.517Z,22.98
2014-07-05T05:29:31.208Z,23.23
2014-07-05T05:30:35.896Z,23.13
2014-07-05T05:31:40.570Z,23.39
2014-07-05T05:32:45.261Z,23.34
2014-07-05T05:33:49.950Z,23.64
2014-07-05T05:34:54.640Z,23.79
2014-07-05T05:35:59.627Z,24.04
2014-07-05T05:37:04.317Z,23.75
2014-07-05T05:38:08.989Z,23.93
2014-07-05T05:39:13.680Z,23.87
2014-07-05T05:40:18.368Z,24.06
2014-07-05T05:41:23.059Z,24.18
2014-07-05T05:42:27.764Z,24.26
2014-07-05T05:43:32.454Z,24.3
2014-07-05T05:44:37.143Z,24.31
2014-07-05T05:45:41.833Z,24.35
2014-07-05T05:46:46.522Z,24.34
2014-07-05T05:47:51.212Z,24.33
2014-07-05T05:48:55.901Z,24.44
2014-07-05T05:50:00.575Z,24.49
2014-07-05T05:51:05.577Z,24.72
2014-07-05T05:52:10.266Z,24.76
2014-07-05T05:53:14.957Z,24.98
2014-07-05T05:54:19.646Z,25.22
2014-07-05T05:55:24.335Z,25.37
2014-07-05T05:56:29.322Z,25.72
2014-07-05T05:57:34.011Z,26.03
2014-07-05T05:58:38.686Z,25.97
2014-07-05T05:59:43.374Z,25.56
2014-07-05T06:00:48.065Z,26.07
2014-07-05T06:01:53.051Z,26.06
2014-07-05T06:02:57.741Z,25.66
2014-07-05T06:04:02.430Z,25.9
2014-07-05T06:05:07.120Z,26.04
2014-07-05T06:06:11.810Z,26.18
2014-07-05T06:07:16.500Z,26.25
2014-07-05T06:08:21.188Z,26.3
2014-07-05T06:09:25.878Z,25.62
2014-07-05T06:10:30.568Z,26.72
2014-07-05T06:11:35.257Z,28.14
2014-07-05T06:12:39.946Z,29.73
2014-07-05T06:13:44.637Z,32.07
2014-07-05T06:14:49.325Z,33.44
2014-07-05T06:15:54.016Z,33.56
2014-07-05T06:16:58.705Z,34.12
2014-07-05T06:18:03.395Z,35.43
2014-07-05T06:19:08.084Z,36.24
2014-07-05T06:20:12.774Z,36.64
2014-07-05T06:21:17.464Z,35.51
2014-07-05T06:22:22.449Z,36.93
2014-07-05T06:23:27.140Z,37.33
2014-07-05T06:24:31.828Z,38.19
2014-07-05T06:25:36.519Z,37.87
2014-07-05T06:26:41.207Z,38.25
2014-07-05T06:27:45.898Z,39.08
2014-07-05T06:28:50.603Z,39.47
2014-07-05T06:29:55.293Z,39.61
2014-07-05T06:30:59.982Z,40.13
2014-07-05T06:32:04.984Z,40.11
2014-07-05T06:33:09.970Z,39.86
2014-07-05T06:34:14.676Z,40.28
2014-07-05T06:35:19.365Z,39.74
2014-07-05T06:36:24.055Z,40.28
2014-07-05T06:37:28.760Z,39.81
2014-07-05T06:38:33.747Z,39.63
2014-07-05T06:39:38.451Z,39.21
2014-07-05T06:40:43.141Z,36.53
2014-07-05T06:41:47.830Z,34.44
2014-07-05T06:42:52.832Z,32.8
2014-07-05T06:43:57.523Z,32.09
2014-07-05T06:45:02.211Z,31.53
2014-07-05T06:46:06.916Z,30.86
2014-07-05T06:47:11.607Z,30.16
2014-07-05T06:48:16.312Z,29.81
2014-07-05T06:49:21.001Z,29.61
2014-07-05T06:50:25.691Z,28.99
2014-07-05T06:51:30.380Z,29.11
2014-07-05T06:52:35.101Z,28.72
2014-07-05T06:53:39.791Z,28.62
2014-07-05T06:54:44.480Z,28.41
2014-07-05T06:55:49.170Z,28.41
2014-07-05T06:56:53.859Z,27.98
2014-07-05T06:57:58.549Z,27.57
2014-07-05T06:59:03.238Z,27.66
2014-07-05T07:00:07.929Z,27.49
2014-07-05T07:01:12.617Z,27.4
2014-07-05T07:02:17.308Z,27.44
2014-07-05T07:03:22.294Z,27.59
2014-07-05T07:04:26.984Z,27.35
2014-07-05T07:05:31.673Z,26.74
2014-07-05T07:06:36.659Z,26.93
2014-07-05T07:07:41.349Z,26.53
2014-07-05T07:08:46.038Z,26.24
2014-07-05T07:09:50.728Z,26.57
2014-07-05T07:10:55.418Z,26.65
2014-07-05T07:12:00.107Z,26.69
2014-07-05T07:13:05.094Z,26.83
2014-07-05T07:14:10.081Z,26.67
2014-07-05T07:15:14.770Z,26.62
2014-07-05T07:16:19.460Z,26.53
2014-07-05T07:17:24.446Z,26.47
2014-07-05T07:18:29.135Z,26.74
2014-07-05T07:19:33.808Z,26.7
2014-07-05T07:20:38.498Z,26.68
2014-07-05T07:21:43.188Z,26.9
2014-07-05T07:22:48.175Z,26.88
2014-07-05T07:23:52.863Z,27.1
2014-07-05T07:24:57.554Z,26.91
2014-07-05T07:26:02.556Z,26.7
2014-07-05T07:27:07.245Z,26.96
2014-07-05T07:28:12.233Z,26.91
2014-07-05T07:29:16.922Z,26.56
2014-07-05T07:30:21.221Z,26.48
2014-07-05T07:31:25.910Z,26.46
2014-07-05T07:32:30.897Z,26.2
2014-07-05T07:33:35.585Z,26.26
2014-07-05T07:34:40.275Z,26.14
2014-07-05T07:35:44.965Z,26.05
2014-07-05T07:36:49.639Z,25.94
2014-07-05T07:37:54.329Z,25.84
2014-07-05T07:38:59.314Z,25.69
2014-07-05T07:40:04.302Z,25.51
2014-07-05T07:41:09.287Z,25.21
2014-07-05T07:42:14.571Z,25.51
2014-07-05T07:43:19.558Z,25.53
2014-07-05T07:44:24.544Z,25.6
2014-07-05T07:45:29.233Z,25.41
2014-07-05T07:46:34.220Z,25.13
2014-07-05T07:47:39.003Z,25.16
2014-07-05T07:48:43.693Z,25.5
2014-07-05T07:49:48.382Z,25.14
2014-07-05T07:50:53.368Z,24.96
2014-07-05T07:51:58.058Z,25.24
2014-07-05T07:53:02.732Z,25.31
2014-07-05T07:54:07.421Z,25.34
2014-07-05T07:55:12.111Z,25.54
2014-07-05T07:56:16.799Z,25.69
2014-07-05T07:57:21.490Z,25.99
2014-07-05T07:58:26.181Z,25.8
2014-07-05T07:59:30.855Z,25.67
2014-07-05T08:00:35.544Z,26
2014-07-05T08:01:40.234Z,26.05
2014-07-05T08:02:45.221Z,26.39
2014-07-05T08:03:49.910Z,26.63
2014-07-05T08:04:54.896Z,26.5
2014-07-05T08:05:59.570Z,26.5
2014-07-05T08:07:04.557Z,26.6
2014-07-05T08:08:09.246Z,26.46
2014-07-05T08:09:14.233Z,26.11
2014-07-05T08:10:19.220Z,25.92
2014-07-05T08:11:23.909Z,25.93
2014-07-05T08:12:28.895Z,25.94
2014-07-05T08:13:32.897Z,25.85
2014-07-05T08:14:37.586Z,25.9
2014-07-05T08:15:42.573Z,25.4
2014-07-05T08:16:47.262Z,25.39
2014-07-05T08:17:51.936Z,25.1
2014-07-05T08:18:56.641Z,25.36
2014-07-05T08:20:01.331Z,25.4
2014-07-05T08:21:06.301Z,25.22
2014-07-05T08:22:10.991Z,25.33
2014-07-05T08:23:15.680Z,25.06
2014-07-05T08:24:20.370Z,24.97
2014-07-05T08:25:25.357Z,25.12
2014-07-05T08:26:30.344Z,24.84
2014-07-05T08:27:35.018Z,25.02
2014-07-05T08:28:40.004Z,25.27
2014-07-05T08:29:44.989Z,25.2
2014-07-05T08:30:49.976Z,25.15
2014-07-05T08:31:54.665Z,24.97
2014-07-05T08:32:59.355Z,24.74
2014-07-05T08:34:04.044Z,24.6
2014-07-05T08:35:09.047Z,24.64
2014-07-05T08:36:13.723Z,24.66
2014-07-05T08:37:18.412Z,24.61
2014-07-05T08:38:23.398Z,24.64
2014-07-05T08:39:28.385Z,24.74
2014-07-05T08:40:33.074Z,24.46
2014-07-05T08:41:37.749Z,24.54
2014-07-05T08:42:42.437Z,24.39
2014-07-05T08:43:47.128Z,24.45
2014-07-05T08:44:51.816Z,24.18
2014-07-05T08:45:56.507Z,24.13
2014-07-05T08:47:01.181Z,24.16
2014-07-05T08:48:06.479Z,24.38
2014-07-05T08:49:11.466Z,24.6
2014-07-05T08:50:16.154Z,24.68
2014-07-05T08:51:21.141Z,24.46
2014-07-05T08:52:26.425Z,24.65
2014-07-05T08:53:31.411Z,24.45
2014-07-05T08:54:36.101Z,24.6
2014-07-05T08:55:41.087Z,24.45
2014-07-05T08:56:46.073Z,24.46
2014-07-05T08:57:50.763Z,24.68
2014-07-05T08:58:55.452Z,24.75
2014-07-05T09:00:00.158Z,24.73
2014-07-05T09:01:05.144Z,24.8
2014-07-05T09:02:09.818Z,24.8
2014-07-05T09:03:14.507Z,24.86
2014-07-05T09:04:19.197Z,24.9
2014-07-05T09:05:24.480Z,24.97
2014-07-05T09:06:29.467Z,25.08
2014-07-05T09:07:34.453Z,25.24
2014-07-05T09:08:39.142Z,25.15
2014-07-05T09:09:43.832Z,25.2
2014-07-05T09:10:48.506Z,25.2
2014-07-05T09:11:53.196Z,25.35
2014-07-05T09:12:58.182Z,25.28
2014-07-05T09:14:02.871Z,25.25
2014-07-05T09:15:06.873Z,25.16
2014-07-05T09:16:11.862Z,25.23
2014-07-05T09:17:16.848Z,25.21
2014-07-05T09:18:21.536Z,25.06
2014-07-05T09:19:26.227Z,24.77
2014-07-05T09:20:30.901Z,25
2014-07-05T09:21:35.886Z,24.9
2014-07-05T09:22:40.874Z,24.85
2014-07-05T09:23:45.860Z,25.2
2014-07-05T09:24:50.549Z,24.87
2014-07-05T09:25:55.536Z,24.63
2014-07-05T09:27:00.522Z,24.6
2014-07-05T09:28:05.196Z,24.43
2014-07-05T09:29:10.198Z,24.61
2014-07-05T09:30:15.184Z,24.44
2014-07-05T09:31:19.857Z,24.49
2014-07-05T09:32:24.547Z,24.56
2014-07-05T09:33:29.534Z,24.5
2014-07-05T09:34:34.223Z,24.66
2014-07-05T09:35:39.210Z,24.72
2014-07-05T09:36:43.884Z,24.67
2014-07-05T09:37:48.573Z,24.75
2014-07-05T09:38:53.263Z,24.93
2014-07-05T09:39:58.249Z,25.01
2014-07-05T09:41:03.238Z,25.16
2014-07-05T09:42:07.912Z,25.17
2014-07-05T09:43:12.616Z,25.27
2014-07-05T09:44:17.586Z,25.48
2014-07-05T09:45:22.293Z,25.74
2014-07-05T09:46:26.981Z,25.69
2014-07-05T09:47:31.671Z,26.07
2014-07-05T09:48:36.641Z,26.24
2014-07-05T09:49:41.628Z,26.36
2014-07-05T09:50:46.318Z,26.4
2014-07-05T09:51:51.007Z,26.54
2014-07-05T09:52:55.696Z,26.48
2014-07-05T09:54:00.386Z,26.28
2014-07-05T09:55:05.075Z,26.47
2014-07-05T09:56:09.765Z,26.5
2014-07-05T09:57:14.454Z,26.48
2014-07-05T09:58:19.144Z,26.39
2014-07-05T09:59:23.818Z,26.37
2014-07-05T10:00:28.507Z,26.42
2014-07-05T10:01:33.511Z,26.61
2014-07-05T10:02:38.497Z,26.35
2014-07-05T10:03:43.781Z,26.29
2014-07-05T10:04:48.767Z,26.31
2014-07-05T10:05:53.441Z,26.47
2014-07-05T10:06:58.130Z,26.65
2014-07-05T10:08:03.117Z,26.84
2014-07-05T10:09:07.806Z,26.93
2014-07-05T10:10:12.511Z,27.19
2014-07-05T10:11:17.201Z,27.3
2014-07-05T10:12:21.890Z,27.39
2014-07-05T10:13:25.892Z,27.13
2014-07-05T10:14:30.878Z,27.2
2014-07-05T10:15:35.865Z,27.28
2014-07-05T10:16:40.555Z,27
2014-07-05T10:17:45.541Z,27.02
2014-07-05T10:18:50.215Z,26.92
2014-07-05T10:19:54.920Z,27.16
2014-07-05T10:20:59.891Z,27.37
2014-07-05T10:22:04.877Z,27.66
2014-07-05T10:23:09.567Z,27.76
2014-07-05T10:24:14.257Z,27.87
2014-07-05T10:25:19.556Z,28.19
2014-07-05T10:26:24.246Z,28.15
2014-07-05T10:27:28.935Z,28.11
2014-07-05T10:28:33.625Z,28.03
2014-07-05T10:29:38.314Z,27.78
2014-07-05T10:30:43.004Z,28.04
2014-07-05T10:31:47.693Z,28.06
2014-07-05T10:32:52.383Z,28.12
2014-07-05T10:33:57.369Z,28
2014-07-05T10:35:02.652Z,27.68
2014-07-05T10:36:07.326Z,27.95
2014-07-05T10:37:11.344Z,27.86
2014-07-05T10:38:16.033Z,28.18
2014-07-05T10:39:20.723Z,28.21
2014-07-05T10:40:25.709Z,28.09
2014-07-05T10:41:30.383Z,27.91
2014-07-05T10:42:35.074Z,27.98
2014-07-05T10:43:39.763Z,27.84
2014-07-05T10:44:44.469Z,28.02
2014-07-05T10:45:49.142Z,28.27
2014-07-05T10:46:53.832Z,28.42
2014-07-05T10:47:59.115Z,28.46
2014-07-05T10:49:03.804Z,28.47
2014-07-05T10:50:08.495Z,28.52
2014-07-05T10:51:13.183Z,28.43
2014-07-05T10:52:17.874Z,28.62
2014-07-05T10:53:22.563Z,28.52
2014-07-05T10:54:27.550Z,28.44
2014-07-05T10:55:32.535Z,28.11
2014-07-05T10:56:37.819Z,27.87
2014-07-05T10:57:42.805Z,28.21
2014-07-05T10:58:47.494Z,28
2014-07-05T10:59:52.184Z,28.04
2014-07-05T11:00:56.875Z,28.05
2014-07-05T11:02:01.549Z,27.9
2014-07-05T11:03:06.238Z,28.01
2014-07-05T11:04:10.240Z,27.94
2014-07-05T11:05:14.930Z,27.76
2014-07-05T11:06:19.916Z,27.74
2014-07-05T11:07:24.621Z,27.78
2014-07-05T11:08:29.607Z,27.64
2014-07-05T11:09:34.594Z,27.65
2014-07-05T11:10:39.581Z,27.73
2014-07-05T11:11:43.583Z,27.76
2014-07-05T11:12:48.865Z,27.63
2014-07-05T11:13:53.555Z,27.73
2014-07-05T11:14:58.245Z,27.69
2014-07-05T11:16:02.934Z,27.64
2014-07-05T11:17:07.623Z,27.65
2014-07-05T11:18:12.611Z,27.6
2014-07-05T11:19:17.301Z,27.64
2014-07-05T11:20:22.287Z,27.87
2014-07-05T11:21:26.977Z,27.8
2014-07-05T11:22:31.963Z,27.88
2014-07-05T11:23:36.652Z,27.5
2014-07-05T11:24:41.326Z,27.39
2014-07-05T11:25:46.016Z,27.35
2014-07-05T11:26:51.018Z,27.39
2014-07-05T11:27:55.707Z,27.37
2014-07-05T11:29:00.411Z,27.48
2014-07-05T11:30:05.085Z,27.29
2014-07-05T11:31:09.775Z,27.3
2014-07-05T11:32:14.465Z,27.27
2014-07-05T11:33:19.451Z,27.18
2014-07-05T11:34:24.142Z,27
2014-07-05T11:35:28.832Z,27.25
2014-07-05T11:36:33.521Z,27.29
2014-07-05T11:37:38.211Z,27.27
2014-07-05T11:38:42.885Z,27.18
2014-07-05T11:39:47.573Z,27.33
2014-07-05T11:40:52.263Z,27.23
2014-07-05T11:41:56.952Z,27.03
2014-07-05T11:43:01.954Z,27.1
2014-07-05T11:44:06.628Z,27.07
2014-07-05T11:45:11.614Z,26.98
2014-07-05T11:46:16.304Z,27
2014-07-05T11:47:21.290Z,26.7
2014-07-05T11:48:25.982Z,26.7
2014-07-05T11:49:30.671Z,26.64
2014-07-05T11:50:35.361Z,26.75
2014-07-05T11:51:40.050Z,26.74
2014-07-05T11:52:44.724Z,26.73
2014-07-05T11:53:49.414Z,26.91
2014-07-05T11:54:54.103Z,26.75
2014-07-05T11:55:58.793Z,26.56
2014-07-05T11:57:03.482Z,26.61
2014-07-05T11:58:08.468Z,26.52
2014-07-05T11:59:13.158Z,26.54
2014-07-05T12:00:18.144Z,26.43
2014-07-05T12:01:23.130Z,26.34
2014-07-05T12:02:27.820Z,26.09
2014-07-05T12:03:32.510Z,25.95
2014-07-05T12:04:37.496Z,25.84
2014-07-05T12:05:42.186Z,25.66
2014-07-05T12:06:46.875Z,25.3
2014-07-05T12:07:51.566Z,25.21
2014-07-05T12:08:56.552Z,25.08
2014-07-05T12:10:01.242Z,25.39
2014-07-05T12:11:06.213Z,25.22
2014-07-05T12:12:10.902Z,25.07
2014-07-05T12:13:15.591Z,25.27
2014-07-05T12:14:20.563Z,25.32
2014-07-05T12:15:25.251Z,25.42
2014-07-05T12:16:30.239Z,25.43
2014-07-05T12:17:34.927Z,25.48
2014-07-05T12:18:39.617Z,25.54
2014-07-05T12:19:44.306Z,25.51
2014-07-05T12:20:48.980Z,25.44
2014-07-05T12:21:53.967Z,25.72
2014-07-05T12:22:57.969Z,25.82
2014-07-05T12:24:02.955Z,25.88
2014-07-05T12:25:07.643Z,25.98
2014-07-05T12:26:12.632Z,26.12
2014-07-05T12:27:17.306Z,26.14
2014-07-05T12:28:21.995Z,26.2
2014-07-05T12:29:26.686Z,26.33
2014-07-05T12:30:31.374Z,26.16
2014-07-05T12:31:36.064Z,25.98
2014-07-05T12:32:40.753Z,26.1
2014-07-05T12:33:45.443Z,26.04
2014-07-05T12:34:50.132Z,26.02
2014-07-05T12:35:54.822Z,26.12
2014-07-05T12:36:59.511Z,26.06
2014-07-05T12:38:04.201Z,25.85
2014-07-05T12:39:08.875Z,25.91
2014-07-05T12:40:13.860Z,25.94
2014-07-05T12:41:18.552Z,25.66
2014-07-05T12:42:23.538Z,25.76
2014-07-05T12:43:28.525Z,25.77
2014-07-05T12:44:33.215Z,25.96
2014-07-05T12:45:37.904Z,26.08
2014-07-05T12:46:42.577Z,26.09
2014-07-05T12:47:47.267Z,26.1
2014-07-05T12:48:51.956Z,25.84
2014-07-05T12:49:56.646Z,25.84
2014-07-05T12:51:01.336Z,25.96
2014-07-05T12:52:06.026Z,26.11
2014-07-05T12:53:10.698Z,26.09
2014-07-05T12:54:14.716Z,25.78
2014-07-05T12:55:19.390Z,25.85
2014-07-05T12:56:24.078Z,26.05
2014-07-05T12:57:29.365Z,26
2014-07-05T12:58:34.054Z,25.83
2014-07-05T12:59:38.728Z,26.08
2014-07-05T13:00:43.714Z,26
2014-07-05T13:01:48.403Z,25.82
2014-07-05T13:02:53.092Z,25.75
2014-07-05T13:03:58.079Z,25.8
2014-07-05T13:05:03.065Z,25.87
2014-07-05T13:06:08.052Z,25.64
2014-07-05T13:07:12.725Z,25.74
2014-07-05T13:08:17.415Z,25.63
2014-07-05T13:09:22.103Z,25.55
2014-07-05T13:10:27.092Z,25.44
2014-07-05T13:11:31.782Z,25.45
2014-07-05T13:12:36.472Z,25.52
2014-07-05T13:13:41.458Z,25.19
2014-07-05T13:14:46.132Z,25.3
2014-07-05T13:15:51.117Z,25.35
2014-07-05T13:16:56.104Z,25.35
2014-07-05T13:18:01.387Z,25.38
2014-07-05T13:19:06.077Z,25.38
2014-07-05T13:20:10.766Z,25.39
2014-07-05T13:21:15.752Z,24.96
2014-07-05T13:22:20.442Z,24.79
2014-07-05T13:23:25.116Z,24.92
2014-07-05T13:24:29.807Z,25
2014-07-05T13:25:34.480Z,25.25
2014-07-05T13:26:39.171Z,25.12
2014-07-05T13:27:44.157Z,24.98
2014-07-05T13:28:49.142Z,24.97
2014-07-05T13:29:53.833Z,24.92
2014-07-05T13:30:58.819Z,25.08
2014-07-05T13:32:03.508Z,25.12
2014-07-05T13:33:08.182Z,25.11
2014-07-05T13:34:13.168Z,25.05
2014-07-05T13:35:17.858Z,25.08
2014-07-05T13:36:23.141Z,24.9
2014-07-05T13:37:27.830Z,24.98
2014-07-05T13:38:32.520Z,25.21
2014-07-05T13:39:37.194Z,25.29
2014-07-05T13:40:41.883Z,24.88
2014-07-05T13:41:46.574Z,24.92
2014-07-05T13:42:51.264Z,25.15
2014-07-05T13:43:56.235Z,24.96
2014-07-05T13:45:00.924Z,24.84
2014-07-05T13:46:05.614Z,24.96
2014-07-05T13:47:10.303Z,25.08
2014-07-05T13:48:14.992Z,25.01
2014-07-05T13:49:19.681Z,25
2014-07-05T13:50:24.652Z,25
2014-07-05T13:51:29.342Z,24.76
2014-07-05T13:52:34.031Z,24.78
2014-07-05T13:53:38.754Z,24.44
2014-07-05T13:54:43.469Z,24.41
2014-07-05T13:55:48.496Z,24.52
2014-07-05T13:56:53.226Z,24.76
2014-07-05T13:57:57.979Z,24.69